Wednesday, April 23, 2014, 4:25 AM EDT

KSEG, Selinsgrove Penn Valley Airport

Location: Selinsgrove, PA, United States Lat: 40.817
Local Time: 4:25 AM EDT ( 8:25 GMT) Lon: -76.867
Time Zone: US/Eastern Elev: 449 ft

Show me the last for .
Show Decoded

2014-04-23 03:53 METAR KSEG 230753Z AUTO 29011G20KT 10SM BKN043 BKN065 BKN090 08/01 A2968 RMK AO2
                 SLP049 T00830011 TSNO =
2014-04-23 02:53 METAR KSEG 230653Z AUTO 29008G15KT 10SM OVC045 09/01 A2967 RMK AO2 SLP048
                 T00890006 TSNO =
2014-04-23 01:53 METAR KSEG 230553Z AUTO 30005G17KT 10SM BKN045 09/00 A2968 RMK AO2 SLP050
                 T00940000 10150 20089 50003 TSNO =
2014-04-23 00:53 METAR KSEG 230453Z AUTO 28008KT 10SM SCT048 09/01 A2968 RMK AO2 SLP050 T00890006
                 402110089 TSNO =
2014-04-22 23:53 METAR KSEG 230353Z AUTO 27008KT 10SM CLR 09/01 A2968 RMK AO2 SLP049 T00940006
                 TSNO =
2014-04-22 22:53 METAR KSEG 230253Z AUTO 27007G15KT 10SM CLR 12/04 A2967 RMK AO2 SLP045 T01170039
                 53031 TSNO =
2014-04-22 21:53 METAR KSEG 230153Z AUTO 27006KT 10SM CLR 14/05 A2963 RMK AO2 SLP031 T01390050
                 TSNO =
2014-04-22 20:53 METAR KSEG 230053Z AUTO 25003KT 10SM CLR 12/09 A2960 RMK AO2 SLP022 T01220094
                 TSNO =
2014-04-22 19:53 METAR KSEG 222353Z AUTO 25003KT 10SM SCT085 15/10 A2957 RMK AO2 SLP014 60013
                 T01500100 10211 20144 53006 TSNO =
2014-04-22 18:53 METAR KSEG 222253Z AUTO 00000KT 9SM FEW100 BKN120 14/13 A2955 RMK AO2 SLP006
                 T01440128 TSNO =
2014-04-22 17:53 METAR KSEG 222153Z AUTO 14007KT 10SM OVC110 15/12 A2956 RMK AO2 PK WND
                 29034/2055 RAB2057E25 SLP007 P0013 T01500122 TSNO =
2014-04-22 17:09 METAR KSEG 222109Z AUTO 23005G18KT 3SM -RA FEW040 BKN055 BKN070 14/11 A2956 RMK
                 AO2 PK WND 29034/2055 RAB2057 P0012 T01440106 TSNO =
2014-04-22 16:57 METAR KSEG 222057Z AUTO 30018G34KT 1 3/4SM -RA FEW040 SCT047 BKN060 18/11 A2958
                 RMK AO2 PK WND 29034/2055 RAB57 PRESRR P0007 T01830106 TSNO =
2014-04-22 16:53 METAR KSEG 222053Z AUTO 26009G16KT 10SM SCT044 SCT060 SCT100 20/10 A2955 RMK AO2
                 SLP007 60000 T02000100 56022 TSNO =
2014-04-22 15:53 METAR KSEG 221953Z AUTO 16007KT 10SM OVC045 18/11 A2957 RMK AO2 SLP012 T01830106
                 TSNO =
2014-04-22 14:53 METAR KSEG 221853Z AUTO 18006KT 10SM FEW043 BKN065 OVC080 17/11 A2960 RMK AO2
                 RAE1754 SLP021 P0000 T01670106 TSNO =
2014-04-22 13:53 METAR KSEG 221753Z AUTO 19005KT 10SM -RA SCT050 BKN060 OVC080 14/10 A2962 RMK
                 AO2 SLP029 P0001 60001 T01440100 10167 20133 58006 TSNO =
2014-04-22 12:53 METAR KSEG 221653Z AUTO 17007KT 7SM -RA OVC070 14/08 A2963 RMK AO2 SLP033 P0000
                 T01440078 TSNO =
2014-04-22 11:53 METAR KSEG 221553Z AUTO 18007KT 10SM -RA OVC080 16/05 A2965 RMK AO2 RAB21 SLP039
                 P0000 T01610050 TSNO =
2014-04-22 10:53 METAR KSEG 221453Z AUTO 17004KT 10SM OVC090 16/03 A2964 RMK AO2 SLP036 T01610028
                 57022 TSNO =
2014-04-22 09:53 METAR KSEG 221353Z AUTO 14005KT 10SM CLR 16/04 A2966 RMK AO2 SLP042 T01610039
                 TSNO =
2014-04-22 08:53 METAR KSEG 221253Z AUTO 00000KT 10SM CLR 15/02 A2969 RMK AO2 SLP051 T01500022
                 TSNO =
2014-04-22 07:53 METAR KSEG 221153Z AUTO VRB03KT 10SM FEW120 13/02 A2970 RMK AO2 SLP058 T01330022
                 10139 20111 56012 TSNO =
2014-04-22 06:53 METAR KSEG 221053Z AUTO 22003KT 10SM BKN120 13/02 A2972 RMK AO2 SLP061 T01280017
                 TSNO =
2014-04-22 05:53 METAR KSEG 220953Z AUTO 00000KT 10SM CLR 12/02 A2972 RMK AO2 SLP061 T01170022
                 TSNO =
2014-04-22 04:53 METAR KSEG 220853Z AUTO 00000KT 10SM CLR 12/01 A2974 RMK AO2 SLP069 T01220011
                 56019 TSNO =

Support USWX by starting your Amazon purchase here.